sensor_id;sensor_type;location;lat;lon;timestamp;temperature;humidity
19200;DHT22;9732;52.498;5.408;2023-06-22T00:00:32;20.60;99.90
19200;DHT22;9732;52.498;5.408;2023-06-22T00:03:00;20.60;99.90
19200;DHT22;9732;52.498;5.408;2023-06-22T00:05:28;20.50;99.90
19200;DHT22;9732;52.498;5.408;2023-06-22T00:07:55;20.50;99.90
19200;DHT22;9732;52.498;5.408;2023-06-22T00:10:21;20.50;99.90
19200;DHT22;9732;52.498;5.408;2023-06-22T00:12:49;20.50;99.90
19200;DHT22;9732;52.498;5.408;2023-06-22T00:15:18;20.50;99.90
19200;DHT22;9732;52.498;5.408;2023-06-22T00:17:46;20.40;99.90
19200;DHT22;9732;52.498;5.408;2023-06-22T00:20:14;20.40;99.90
19200;DHT22;9732;52.498;5.408;2023-06-22T00:22:44;20.40;99.90
19200;DHT22;9732;52.498;5.408;2023-06-22T00:25:12;20.50;99.90
19200;DHT22;9732;52.498;5.408;2023-06-22T00:27:40;20.50;99.90
19200;DHT22;9732;52.498;5.408;2023-06-22T00:30:08;20.50;99.90
19200;DHT22;9732;52.498;5.408;2023-06-22T00:32:37;20.40;99.90
19200;DHT22;9732;52.498;5.408;2023-06-22T00:35:07;20.50;99.90
19200;DHT22;9732;52.498;5.408;2023-06-22T00:37:35;20.40;99.90
19200;DHT22;9732;52.498;5.408;2023-06-22T00:40:05;20.40;99.90
19200;DHT22;9732;52.498;5.408;2023-06-22T00:42:34;20.40;99.90
19200;DHT22;9732;52.498;5.408;2023-06-22T00:45:02;20.40;99.90
19200;DHT22;9732;52.498;5.408;2023-06-22T00:47:30;20.40;99.90
19200;DHT22;9732;52.498;5.408;2023-06-22T00:50:00;20.40;99.90
19200;DHT22;9732;52.498;5.408;2023-06-22T00:52:27;20.30;99.90
19200;DHT22;9732;52.498;5.408;2023-06-22T00:54:57;20.20;99.90
19200;DHT22;9732;52.498;5.408;2023-06-22T00:57:26;20.20;99.90
19200;DHT22;9732;52.498;5.408;2023-06-22T00:59:55;20.20;99.90
19200;DHT22;9732;52.498;5.408;2023-06-22T01:02:23;20.10;99.90
19200;DHT22;9732;52.498;5.408;2023-06-22T01:04:50;20.00;99.90
19200;DHT22;9732;52.498;5.408;2023-06-22T01:07:24;20.00;99.90
19200;DHT22;9732;52.498;5.408;2023-06-22T01:10:07;19.90;99.90
19200;DHT22;9732;52.498;5.408;2023-06-22T01:12:47;19.80;99.90
19200;DHT22;9732;52.498;5.408;2023-06-22T01:15:20;19.80;99.90
19200;DHT22;9732;52.498;5.408;2023-06-22T01:17:56;19.90;99.90
19200;DHT22;9732;52.498;5.408;2023-06-22T01:20:28;19.80;99.90
19200;DHT22;9732;52.498;5.408;2023-06-22T01:23:05;19.70;99.90
19200;DHT22;9732;52.498;5.408;2023-06-22T01:25:45;19.70;99.90
19200;DHT22;9732;52.498;5.408;2023-06-22T01:30:54;19.70;99.90
19200;DHT22;9732;52.498;5.408;2023-06-22T01:33:33;19.70;99.90
19200;DHT22;9732;52.498;5.408;2023-06-22T01:36:02;19.70;99.90
19200;DHT22;9732;52.498;5.408;2023-06-22T01:38:33;19.70;99.90
19200;DHT22;9732;52.498;5.408;2023-06-22T01:41:01;19.70;99.90
19200;DHT22;9732;52.498;5.408;2023-06-22T01:43:30;19.70;99.90
19200;DHT22;9732;52.498;5.408;2023-06-22T01:46:01;19.60;99.90
19200;DHT22;9732;52.498;5.408;2023-06-22T01:48:29;19.70;99.90
19200;DHT22;9732;52.498;5.408;2023-06-22T01:50:57;19.60;99.90
19200;DHT22;9732;52.498;5.408;2023-06-22T01:53:25;19.60;99.90
19200;DHT22;9732;52.498;5.408;2023-06-22T01:55:53;19.60;99.90
19200;DHT22;9732;52.498;5.408;2023-06-22T01:58:24;19.60;99.90
19200;DHT22;9732;52.498;5.408;2023-06-22T02:00:58;19.70;99.90
19200;DHT22;9732;52.498;5.408;2023-06-22T02:03:32;19.70;99.90
19200;DHT22;9732;52.498;5.408;2023-06-22T02:06:05;19.60;99.90
19200;DHT22;9732;52.498;5.408;2023-06-22T02:08:38;19.60;99.90
19200;DHT22;9732;52.498;5.408;2023-06-22T02:11:08;19.60;99.90
19200;DHT22;9732;52.498;5.408;2023-06-22T02:13:38;19.60;99.90
19200;DHT22;9732;52.498;5.408;2023-06-22T02:16:11;19.60;99.90
19200;DHT22;9732;52.498;5.408;2023-06-22T02:18:39;19.60;99.90
19200;DHT22;9732;52.498;5.408;2023-06-22T02:21:07;19.60;99.90
19200;DHT22;9732;52.498;5.408;2023-06-22T02:23:34;19.60;99.90
19200;DHT22;9732;52.498;5.408;2023-06-22T02:26:02;19.60;99.90
19200;DHT22;9732;52.498;5.408;2023-06-22T02:28:30;19.60;99.90
19200;DHT22;9732;52.498;5.408;2023-06-22T02:30:58;19.60;99.90
19200;DHT22;9732;52.498;5.408;2023-06-22T02:33:27;19.60;99.90
19200;DHT22;9732;52.498;5.408;2023-06-22T02:35:55;19.60;99.90
19200;DHT22;9732;52.498;5.408;2023-06-22T02:38:22;19.50;99.90
19200;DHT22;9732;52.498;5.408;2023-06-22T02:40:50;19.40;99.90
19200;DHT22;9732;52.498;5.408;2023-06-22T02:43:18;19.40;99.90
19200;DHT22;9732;52.498;5.408;2023-06-22T02:45:45;19.40;99.90
19200;DHT22;9732;52.498;5.408;2023-06-22T02:48:12;19.40;99.90
19200;DHT22;9732;52.498;5.408;2023-06-22T02:50:40;19.40;99.90
19200;DHT22;9732;52.498;5.408;2023-06-22T02:53:07;19.40;99.90
19200;DHT22;9732;52.498;5.408;2023-06-22T02:55:36;19.40;99.90
19200;DHT22;9732;52.498;5.408;2023-06-22T02:58:05;19.40;99.90
19200;DHT22;9732;52.498;5.408;2023-06-22T03:00:33;19.30;99.90
19200;DHT22;9732;52.498;5.408;2023-06-22T03:03:01;19.40;99.90
19200;DHT22;9732;52.498;5.408;2023-06-22T03:05:29;19.40;99.90
19200;DHT22;9732;52.498;5.408;2023-06-22T03:07:58;19.40;99.90
19200;DHT22;9732;52.498;5.408;2023-06-22T03:10:26;19.50;99.90
19200;DHT22;9732;52.498;5.408;2023-06-22T03:12:54;19.40;99.90
19200;DHT22;9732;52.498;5.408;2023-06-22T03:15:21;19.40;99.90
19200;DHT22;9732;52.498;5.408;2023-06-22T03:17:49;19.30;99.90
19200;DHT22;9732;52.498;5.408;2023-06-22T03:20:18;19.30;99.90
19200;DHT22;9732;52.498;5.408;2023-06-22T03:22:45;19.30;99.90
19200;DHT22;9732;52.498;5.408;2023-06-22T03:25:15;19.30;99.90
19200;DHT22;9732;52.498;5.408;2023-06-22T03:27:43;19.30;99.90
19200;DHT22;9732;52.498;5.408;2023-06-22T03:30:11;19.20;99.90
19200;DHT22;9732;52.498;5.408;2023-06-22T03:32:40;19.20;99.90
19200;DHT22;9732;52.498;5.408;2023-06-22T03:35:12;19.30;99.90
19200;DHT22;9732;52.498;5.408;2023-06-22T03:37:41;19.20;99.90
19200;DHT22;9732;52.498;5.408;2023-06-22T03:40:09;19.20;99.90
19200;DHT22;9732;52.498;5.408;2023-06-22T03:42:38;19.20;99.90
19200;DHT22;9732;52.498;5.408;2023-06-22T03:45:07;19.20;99.90
19200;DHT22;9732;52.498;5.408;2023-06-22T03:47:35;19.20;99.90
19200;DHT22;9732;52.498;5.408;2023-06-22T03:50:02;19.20;99.90
19200;DHT22;9732;52.498;5.408;2023-06-22T03:52:29;19.20;99.90
19200;DHT22;9732;52.498;5.408;2023-06-22T03:54:56;19.20;99.90
19200;DHT22;9732;52.498;5.408;2023-06-22T03:57:24;19.10;99.90
19200;DHT22;9732;52.498;5.408;2023-06-22T03:59:56;19.10;99.90
19200;DHT22;9732;52.498;5.408;2023-06-22T04:02:23;19.10;99.90
19200;DHT22;9732;52.498;5.408;2023-06-22T04:04:50;19.10;99.90
19200;DHT22;9732;52.498;5.408;2023-06-22T04:07:20;19.10;99.90
19200;DHT22;9732;52.498;5.408;2023-06-22T04:09:48;19.10;99.90
19200;DHT22;9732;52.498;5.408;2023-06-22T04:12:17;19.20;99.90
19200;DHT22;9732;52.498;5.408;2023-06-22T04:14:44;19.20;99.90
19200;DHT22;9732;52.498;5.408;2023-06-22T04:17:14;19.20;99.90
19200;DHT22;9732;52.498;5.408;2023-06-22T04:19:43;19.20;99.90
19200;DHT22;9732;52.498;5.408;2023-06-22T04:22:10;19.20;99.90
19200;DHT22;9732;52.498;5.408;2023-06-22T04:24:37;19.20;99.90
19200;DHT22;9732;52.498;5.408;2023-06-22T04:27:05;19.20;99.90
19200;DHT22;9732;52.498;5.408;2023-06-22T04:29:33;19.20;99.90
19200;DHT22;9732;52.498;5.408;2023-06-22T04:32:02;19.20;99.90
19200;DHT22;9732;52.498;5.408;2023-06-22T04:34:33;19.20;99.90
19200;DHT22;9732;52.498;5.408;2023-06-22T04:37:04;19.20;99.90
19200;DHT22;9732;52.498;5.408;2023-06-22T04:39:31;19.20;99.90
19200;DHT22;9732;52.498;5.408;2023-06-22T04:41:59;19.30;99.90
19200;DHT22;9732;52.498;5.408;2023-06-22T04:44:27;19.20;99.90
19200;DHT22;9732;52.498;5.408;2023-06-22T04:46:55;19.30;99.90
19200;DHT22;9732;52.498;5.408;2023-06-22T04:49:27;19.30;99.90
19200;DHT22;9732;52.498;5.408;2023-06-22T04:52:01;19.40;99.90
19200;DHT22;9732;52.498;5.408;2023-06-22T04:54:28;19.40;99.90
19200;DHT22;9732;52.498;5.408;2023-06-22T04:56:58;19.40;99.90
19200;DHT22;9732;52.498;5.408;2023-06-22T04:59:27;19.40;99.90
19200;DHT22;9732;52.498;5.408;2023-06-22T05:01:55;19.40;99.90
19200;DHT22;9732;52.498;5.408;2023-06-22T05:04:27;19.50;99.90
19200;DHT22;9732;52.498;5.408;2023-06-22T05:06:58;19.60;99.90
19200;DHT22;9732;52.498;5.408;2023-06-22T05:09:27;19.60;99.90
19200;DHT22;9732;52.498;5.408;2023-06-22T05:11:54;19.50;99.90
19200;DHT22;9732;52.498;5.408;2023-06-22T05:14:23;19.60;99.90
19200;DHT22;9732;52.498;5.408;2023-06-22T05:16:50;19.60;99.90
19200;DHT22;9732;52.498;5.408;2023-06-22T05:19:19;19.70;99.90
19200;DHT22;9732;52.498;5.408;2023-06-22T05:21:48;19.60;99.90
19200;DHT22;9732;52.498;5.408;2023-06-22T05:24:16;19.70;99.90
19200;DHT22;9732;52.498;5.408;2023-06-22T05:26:46;19.70;99.90
19200;DHT22;9732;52.498;5.408;2023-06-22T05:29:12;19.80;99.90
19200;DHT22;9732;52.498;5.408;2023-06-22T05:31:39;19.80;99.90
19200;DHT22;9732;52.498;5.408;2023-06-22T05:34:07;19.80;99.90
19200;DHT22;9732;52.498;5.408;2023-06-22T05:36:34;19.90;99.90
19200;DHT22;9732;52.498;5.408;2023-06-22T05:39:11;19.90;99.90
19200;DHT22;9732;52.498;5.408;2023-06-22T05:41:39;19.90;99.90
19200;DHT22;9732;52.498;5.408;2023-06-22T05:44:08;19.90;99.90
19200;DHT22;9732;52.498;5.408;2023-06-22T05:46:36;19.90;99.90
19200;DHT22;9732;52.498;5.408;2023-06-22T05:49:04;19.90;99.90
19200;DHT22;9732;52.498;5.408;2023-06-22T05:51:31;19.90;99.90
19200;DHT22;9732;52.498;5.408;2023-06-22T05:53:59;20.00;99.90
19200;DHT22;9732;52.498;5.408;2023-06-22T05:56:31;20.10;99.90
19200;DHT22;9732;52.498;5.408;2023-06-22T05:58:58;20.10;99.90
19200;DHT22;9732;52.498;5.408;2023-06-22T06:01:27;20.00;99.90
19200;DHT22;9732;52.498;5.408;2023-06-22T06:03:54;20.10;99.90
19200;DHT22;9732;52.498;5.408;2023-06-22T06:06:22;20.10;99.90
19200;DHT22;9732;52.498;5.408;2023-06-22T06:08:54;20.20;99.90
19200;DHT22;9732;52.498;5.408;2023-06-22T06:11:22;20.30;99.90
19200;DHT22;9732;52.498;5.408;2023-06-22T06:13:49;20.40;99.90
19200;DHT22;9732;52.498;5.408;2023-06-22T06:16:17;20.50;99.90
19200;DHT22;9732;52.498;5.408;2023-06-22T06:18:46;20.60;99.90
19200;DHT22;9732;52.498;5.408;2023-06-22T06:21:14;20.60;99.90
19200;DHT22;9732;52.498;5.408;2023-06-22T06:23:41;20.70;99.90
19200;DHT22;9732;52.498;5.408;2023-06-22T06:26:14;20.80;99.90
19200;DHT22;9732;52.498;5.408;2023-06-22T06:28:43;20.80;99.90
19200;DHT22;9732;52.498;5.408;2023-06-22T06:31:11;20.90;99.90
19200;DHT22;9732;52.498;5.408;2023-06-22T06:33:42;20.90;99.90
19200;DHT22;9732;52.498;5.408;2023-06-22T06:36:11;20.90;99.90
19200;DHT22;9732;52.498;5.408;2023-06-22T06:38:38;20.90;99.90
19200;DHT22;9732;52.498;5.408;2023-06-22T06:41:06;20.90;99.90
19200;DHT22;9732;52.498;5.408;2023-06-22T06:43:33;20.90;99.90
19200;DHT22;9732;52.498;5.408;2023-06-22T06:46:01;21.00;99.90
19200;DHT22;9732;52.498;5.408;2023-06-22T06:48:29;21.00;99.90
19200;DHT22;9732;52.498;5.408;2023-06-22T06:50:56;21.00;99.90
19200;DHT22;9732;52.498;5.408;2023-06-22T06:53:24;21.00;99.90
19200;DHT22;9732;52.498;5.408;2023-06-22T06:55:52;21.10;99.90
19200;DHT22;9732;52.498;5.408;2023-06-22T06:58:20;21.10;99.90
19200;DHT22;9732;52.498;5.408;2023-06-22T07:00:50;21.10;99.90
19200;DHT22;9732;52.498;5.408;2023-06-22T07:03:17;21.10;99.90
19200;DHT22;9732;52.498;5.408;2023-06-22T07:05:44;21.20;99.90
19200;DHT22;9732;52.498;5.408;2023-06-22T07:08:12;21.30;99.90
19200;DHT22;9732;52.498;5.408;2023-06-22T07:10:42;21.40;99.90
19200;DHT22;9732;52.498;5.408;2023-06-22T07:13:08;21.50;99.90
19200;DHT22;9732;52.498;5.408;2023-06-22T07:15:36;21.50;99.90
19200;DHT22;9732;52.498;5.408;2023-06-22T07:18:03;21.50;99.90
19200;DHT22;9732;52.498;5.408;2023-06-22T07:20:31;21.60;99.90
19200;DHT22;9732;52.498;5.408;2023-06-22T07:22:58;21.70;99.90
19200;DHT22;9732;52.498;5.408;2023-06-22T07:25:25;21.70;99.90
19200;DHT22;9732;52.498;5.408;2023-06-22T07:28:00;21.70;99.90
19200;DHT22;9732;52.498;5.408;2023-06-22T07:30:28;21.90;99.90
19200;DHT22;9732;52.498;5.408;2023-06-22T07:32:57;21.90;99.90
19200;DHT22;9732;52.498;5.408;2023-06-22T07:35:30;22.00;99.90
19200;DHT22;9732;52.498;5.408;2023-06-22T07:37:57;22.00;99.90
19200;DHT22;9732;52.498;5.408;2023-06-22T07:40:26;22.10;99.90
19200;DHT22;9732;52.498;5.408;2023-06-22T07:42:54;22.20;99.90
19200;DHT22;9732;52.498;5.408;2023-06-22T07:45:23;22.30;99.90
19200;DHT22;9732;52.498;5.408;2023-06-22T07:47:56;22.30;99.90
19200;DHT22;9732;52.498;5.408;2023-06-22T07:50:24;22.50;99.90
19200;DHT22;9732;52.498;5.408;2023-06-22T07:52:51;22.60;99.90
19200;DHT22;9732;52.498;5.408;2023-06-22T07:55:19;22.60;99.90
19200;DHT22;9732;52.498;5.408;2023-06-22T07:57:48;22.70;99.90
19200;DHT22;9732;52.498;5.408;2023-06-22T08:00:24;22.90;99.90
19200;DHT22;9732;52.498;5.408;2023-06-22T08:02:55;23.00;99.90
19200;DHT22;9732;52.498;5.408;2023-06-22T08:05:23;23.00;99.90
19200;DHT22;9732;52.498;5.408;2023-06-22T08:07:51;23.00;99.90
19200;DHT22;9732;52.498;5.408;2023-06-22T08:10:19;22.90;99.90
19200;DHT22;9732;52.498;5.408;2023-06-22T08:12:48;23.00;99.90
19200;DHT22;9732;52.498;5.408;2023-06-22T08:15:17;23.10;99.90
19200;DHT22;9732;52.498;5.408;2023-06-22T08:17:45;23.10;99.90
19200;DHT22;9732;52.498;5.408;2023-06-22T08:20:13;23.10;99.90
19200;DHT22;9732;52.498;5.408;2023-06-22T08:22:41;23.10;99.90
19200;DHT22;9732;52.498;5.408;2023-06-22T08:25:09;23.20;99.90
19200;DHT22;9732;52.498;5.408;2023-06-22T08:27:36;23.30;99.90
19200;DHT22;9732;52.498;5.408;2023-06-22T08:30:06;23.30;99.90
19200;DHT22;9732;52.498;5.408;2023-06-22T08:32:34;23.50;99.90
19200;DHT22;9732;52.498;5.408;2023-06-22T08:35:05;23.60;99.90
19200;DHT22;9732;52.498;5.408;2023-06-22T08:37:36;23.80;99.90
19200;DHT22;9732;52.498;5.408;2023-06-22T08:40:08;23.90;99.90
19200;DHT22;9732;52.498;5.408;2023-06-22T08:42:36;24.00;99.90
19200;DHT22;9732;52.498;5.408;2023-06-22T08:45:04;24.10;99.90
19200;DHT22;9732;52.498;5.408;2023-06-22T08:47:32;24.20;99.90
19200;DHT22;9732;52.498;5.408;2023-06-22T08:49:59;24.10;99.90
19200;DHT22;9732;52.498;5.408;2023-06-22T08:52:29;24.10;99.90
19200;DHT22;9732;52.498;5.408;2023-06-22T08:54:57;24.20;99.90
19200;DHT22;9732;52.498;5.408;2023-06-22T08:57:24;24.30;99.90
19200;DHT22;9732;52.498;5.408;2023-06-22T08:59:51;24.40;99.90
19200;DHT22;9732;52.498;5.408;2023-06-22T09:02:18;24.50;99.90
19200;DHT22;9732;52.498;5.408;2023-06-22T09:04:46;24.50;99.90
19200;DHT22;9732;52.498;5.408;2023-06-22T09:07:14;24.60;99.90
19200;DHT22;9732;52.498;5.408;2023-06-22T09:09:49;24.70;99.90
19200;DHT22;9732;52.498;5.408;2023-06-22T09:12:16;24.90;99.90
19200;DHT22;9732;52.498;5.408;2023-06-22T09:14:45;25.00;99.90
19200;DHT22;9732;52.498;5.408;2023-06-22T09:17:12;25.10;99.90
19200;DHT22;9732;52.498;5.408;2023-06-22T09:19:39;25.20;99.90
19200;DHT22;9732;52.498;5.408;2023-06-22T09:22:07;25.10;99.90
19200;DHT22;9732;52.498;5.408;2023-06-22T09:24:33;25.20;99.90
19200;DHT22;9732;52.498;5.408;2023-06-22T09:27:02;25.40;99.90
19200;DHT22;9732;52.498;5.408;2023-06-22T09:29:29;25.50;99.90
19200;DHT22;9732;52.498;5.408;2023-06-22T09:31:59;25.50;99.90
19200;DHT22;9732;52.498;5.408;2023-06-22T09:34:26;25.70;99.90
19200;DHT22;9732;52.498;5.408;2023-06-22T09:36:53;25.90;99.90
19200;DHT22;9732;52.498;5.408;2023-06-22T09:39:20;26.10;99.90
19200;DHT22;9732;52.498;5.408;2023-06-22T09:41:47;26.30;99.90
19200;DHT22;9732;52.498;5.408;2023-06-22T09:44:16;26.40;99.90
19200;DHT22;9732;52.498;5.408;2023-06-22T09:46:43;26.40;99.90
19200;DHT22;9732;52.498;5.408;2023-06-22T09:49:11;26.50;99.90
19200;DHT22;9732;52.498;5.408;2023-06-22T09:51:38;26.60;99.90
19200;DHT22;9732;52.498;5.408;2023-06-22T09:54:05;26.80;99.90
19200;DHT22;9732;52.498;5.408;2023-06-22T09:56:33;27.00;99.90
19200;DHT22;9732;52.498;5.408;2023-06-22T09:58:59;27.10;99.90
19200;DHT22;9732;52.498;5.408;2023-06-22T10:01:28;27.30;99.90
19200;DHT22;9732;52.498;5.408;2023-06-22T10:03:55;27.20;99.90
19200;DHT22;9732;52.498;5.408;2023-06-22T10:06:23;27.20;99.90
19200;DHT22;9732;52.498;5.408;2023-06-22T10:08:50;27.10;99.90
19200;DHT22;9732;52.498;5.408;2023-06-22T10:11:17;27.00;99.90
19200;DHT22;9732;52.498;5.408;2023-06-22T10:13:44;26.90;99.90
19200;DHT22;9732;52.498;5.408;2023-06-22T10:16:11;26.90;99.90
19200;DHT22;9732;52.498;5.408;2023-06-22T10:18:39;26.80;99.90
19200;DHT22;9732;52.498;5.408;2023-06-22T10:21:06;26.80;99.90
19200;DHT22;9732;52.498;5.408;2023-06-22T10:23:35;26.80;99.90
19200;DHT22;9732;52.498;5.408;2023-06-22T10:26:01;26.60;99.90
19200;DHT22;9732;52.498;5.408;2023-06-22T10:28:29;26.40;99.90
19200;DHT22;9732;52.498;5.408;2023-06-22T10:30:56;26.40;99.90
19200;DHT22;9732;52.498;5.408;2023-06-22T10:33:23;26.10;99.90
19200;DHT22;9732;52.498;5.408;2023-06-22T10:35:51;26.10;99.90
19200;DHT22;9732;52.498;5.408;2023-06-22T10:38:18;26.10;99.90
19200;DHT22;9732;52.498;5.408;2023-06-22T10:40:46;26.00;99.90
19200;DHT22;9732;52.498;5.408;2023-06-22T10:43:12;25.90;99.90
19200;DHT22;9732;52.498;5.408;2023-06-22T10:45:39;25.80;99.90
19200;DHT22;9732;52.498;5.408;2023-06-22T10:48:06;25.60;99.90
19200;DHT22;9732;52.498;5.408;2023-06-22T10:50:34;25.50;99.90
19200;DHT22;9732;52.498;5.408;2023-06-22T10:53:02;25.40;99.90
19200;DHT22;9732;52.498;5.408;2023-06-22T10:55:30;25.40;99.90
19200;DHT22;9732;52.498;5.408;2023-06-22T10:57:57;25.30;99.90
19200;DHT22;9732;52.498;5.408;2023-06-22T11:00:24;25.20;99.90
19200;DHT22;9732;52.498;5.408;2023-06-22T11:02:53;25.20;99.90
19200;DHT22;9732;52.498;5.408;2023-06-22T11:05:20;25.10;99.90
19200;DHT22;9732;52.498;5.408;2023-06-22T11:07:47;25.10;99.90
19200;DHT22;9732;52.498;5.408;2023-06-22T11:10:23;25.10;99.90
19200;DHT22;9732;52.498;5.408;2023-06-22T11:12:50;25.00;99.90
19200;DHT22;9732;52.498;5.408;2023-06-22T11:15:18;24.90;99.90
19200;DHT22;9732;52.498;5.408;2023-06-22T11:17:45;24.80;99.90
19200;DHT22;9732;52.498;5.408;2023-06-22T11:20:14;24.80;99.90
19200;DHT22;9732;52.498;5.408;2023-06-22T11:22:42;24.80;99.90
19200;DHT22;9732;52.498;5.408;2023-06-22T11:25:10;24.70;99.90
19200;DHT22;9732;52.498;5.408;2023-06-22T11:27:41;24.70;99.90
19200;DHT22;9732;52.498;5.408;2023-06-22T11:30:09;24.60;99.90
19200;DHT22;9732;52.498;5.408;2023-06-22T11:32:36;24.60;99.90
19200;DHT22;9732;52.498;5.408;2023-06-22T11:35:05;24.60;99.90
19200;DHT22;9732;52.498;5.408;2023-06-22T11:37:32;24.60;99.90
19200;DHT22;9732;52.498;5.408;2023-06-22T11:40:00;24.50;99.90
19200;DHT22;9732;52.498;5.408;2023-06-22T11:42:29;24.50;99.90
19200;DHT22;9732;52.498;5.408;2023-06-22T11:44:57;24.50;99.90
19200;DHT22;9732;52.498;5.408;2023-06-22T11:47:24;24.40;99.90
19200;DHT22;9732;52.498;5.408;2023-06-22T11:49:51;24.50;99.90
19200;DHT22;9732;52.498;5.408;2023-06-22T11:52:19;24.50;99.90
19200;DHT22;9732;52.498;5.408;2023-06-22T11:54:46;24.50;99.90
19200;DHT22;9732;52.498;5.408;2023-06-22T11:57:13;24.40;99.90
19200;DHT22;9732;52.498;5.408;2023-06-22T11:59:41;24.30;99.90
19200;DHT22;9732;52.498;5.408;2023-06-22T12:02:09;24.40;99.90
19200;DHT22;9732;52.498;5.408;2023-06-22T12:04:37;24.40;99.90
19200;DHT22;9732;52.498;5.408;2023-06-22T12:07:05;24.40;99.90
19200;DHT22;9732;52.498;5.408;2023-06-22T12:09:32;24.50;99.90
19200;DHT22;9732;52.498;5.408;2023-06-22T12:11:59;24.40;99.90
19200;DHT22;9732;52.498;5.408;2023-06-22T12:14:26;24.50;99.90
19200;DHT22;9732;52.498;5.408;2023-06-22T12:16:52;24.50;99.90
19200;DHT22;9732;52.498;5.408;2023-06-22T12:19:20;24.60;99.90
19200;DHT22;9732;52.498;5.408;2023-06-22T12:21:47;24.60;99.90
19200;DHT22;9732;52.498;5.408;2023-06-22T12:24:14;24.60;99.90
19200;DHT22;9732;52.498;5.408;2023-06-22T12:26:41;24.70;99.90
19200;DHT22;9732;52.498;5.408;2023-06-22T12:29:08;24.80;99.90
19200;DHT22;9732;52.498;5.408;2023-06-22T12:31:35;24.90;99.90
19200;DHT22;9732;52.498;5.408;2023-06-22T12:34:04;24.90;99.90
19200;DHT22;9732;52.498;5.408;2023-06-22T12:36:32;24.90;99.90
19200;DHT22;9732;52.498;5.408;2023-06-22T12:38:59;24.90;99.90
19200;DHT22;9732;52.498;5.408;2023-06-22T12:41:26;24.90;99.90
19200;DHT22;9732;52.498;5.408;2023-06-22T12:43:54;24.90;99.90
19200;DHT22;9732;52.498;5.408;2023-06-22T12:46:21;24.80;99.90
19200;DHT22;9732;52.498;5.408;2023-06-22T12:48:48;24.80;99.90
19200;DHT22;9732;52.498;5.408;2023-06-22T12:51:20;24.90;99.90
19200;DHT22;9732;52.498;5.408;2023-06-22T12:53:49;24.70;99.90
19200;DHT22;9732;52.498;5.408;2023-06-22T12:56:17;24.80;99.90
19200;DHT22;9732;52.498;5.408;2023-06-22T12:58:44;24.70;99.90
19200;DHT22;9732;52.498;5.408;2023-06-22T13:01:11;24.70;99.90
19200;DHT22;9732;52.498;5.408;2023-06-22T13:03:39;24.60;99.90
19200;DHT22;9732;52.498;5.408;2023-06-22T13:06:06;24.60;99.90
19200;DHT22;9732;52.498;5.408;2023-06-22T13:08:35;24.60;99.90
19200;DHT22;9732;52.498;5.408;2023-06-22T13:11:04;24.60;99.90
19200;DHT22;9732;52.498;5.408;2023-06-22T13:13:31;24.60;99.90
19200;DHT22;9732;52.498;5.408;2023-06-22T13:16:00;24.50;99.90
19200;DHT22;9732;52.498;5.408;2023-06-22T13:18:26;24.50;99.90
19200;DHT22;9732;52.498;5.408;2023-06-22T13:20:53;24.50;99.90
19200;DHT22;9732;52.498;5.408;2023-06-22T13:23:21;24.50;99.90
19200;DHT22;9732;52.498;5.408;2023-06-22T13:25:49;24.40;99.90
19200;DHT22;9732;52.498;5.408;2023-06-22T13:28:18;24.30;99.90
19200;DHT22;9732;52.498;5.408;2023-06-22T13:30:47;24.30;99.90
19200;DHT22;9732;52.498;5.408;2023-06-22T13:33:14;24.30;99.90
19200;DHT22;9732;52.498;5.408;2023-06-22T13:35:42;24.30;99.90
19200;DHT22;9732;52.498;5.408;2023-06-22T13:38:09;24.30;99.90
19200;DHT22;9732;52.498;5.408;2023-06-22T13:40:36;24.30;99.90
19200;DHT22;9732;52.498;5.408;2023-06-22T13:43:04;24.20;99.90
19200;DHT22;9732;52.498;5.408;2023-06-22T13:45:32;24.20;99.90
19200;DHT22;9732;52.498;5.408;2023-06-22T13:48:00;24.30;99.90
19200;DHT22;9732;52.498;5.408;2023-06-22T13:50:27;24.30;99.90
19200;DHT22;9732;52.498;5.408;2023-06-22T13:52:54;24.20;99.90
19200;DHT22;9732;52.498;5.408;2023-06-22T13:55:22;24.20;99.90
19200;DHT22;9732;52.498;5.408;2023-06-22T13:57:50;24.20;99.90
19200;DHT22;9732;52.498;5.408;2023-06-22T14:00:18;24.30;99.90
19200;DHT22;9732;52.498;5.408;2023-06-22T14:02:47;24.30;99.90
19200;DHT22;9732;52.498;5.408;2023-06-22T14:05:15;24.20;99.90
19200;DHT22;9732;52.498;5.408;2023-06-22T14:07:42;24.20;99.90
19200;DHT22;9732;52.498;5.408;2023-06-22T14:10:11;24.10;99.90
19200;DHT22;9732;52.498;5.408;2023-06-22T14:12:39;24.20;99.90
19200;DHT22;9732;52.498;5.408;2023-06-22T14:15:07;24.10;99.90
19200;DHT22;9732;52.498;5.408;2023-06-22T14:17:34;24.00;99.90
19200;DHT22;9732;52.498;5.408;2023-06-22T14:20:02;23.90;99.90
19200;DHT22;9732;52.498;5.408;2023-06-22T14:22:31;23.90;99.90
19200;DHT22;9732;52.498;5.408;2023-06-22T14:24:57;23.90;99.90
19200;DHT22;9732;52.498;5.408;2023-06-22T14:27:24;23.90;99.90
19200;DHT22;9732;52.498;5.408;2023-06-22T14:29:51;23.80;99.90
19200;DHT22;9732;52.498;5.408;2023-06-22T14:32:18;23.80;99.90
19200;DHT22;9732;52.498;5.408;2023-06-22T14:34:45;23.80;99.90
19200;DHT22;9732;52.498;5.408;2023-06-22T14:37:13;23.80;99.90
19200;DHT22;9732;52.498;5.408;2023-06-22T14:39:40;23.80;99.90
19200;DHT22;9732;52.498;5.408;2023-06-22T14:42:07;23.80;99.90
19200;DHT22;9732;52.498;5.408;2023-06-22T14:44:34;23.80;99.90
19200;DHT22;9732;52.498;5.408;2023-06-22T14:47:02;23.80;99.90
19200;DHT22;9732;52.498;5.408;2023-06-22T14:49:30;23.70;99.90
19200;DHT22;9732;52.498;5.408;2023-06-22T14:51:57;23.70;99.90
19200;DHT22;9732;52.498;5.408;2023-06-22T14:54:25;23.70;99.90
19200;DHT22;9732;52.498;5.408;2023-06-22T14:56:53;23.60;99.90
19200;DHT22;9732;52.498;5.408;2023-06-22T14:59:20;23.60;99.90
19200;DHT22;9732;52.498;5.408;2023-06-22T15:01:48;23.50;99.90
19200;DHT22;9732;52.498;5.408;2023-06-22T15:04:16;23.40;99.90
19200;DHT22;9732;52.498;5.408;2023-06-22T15:06:44;23.50;99.90
19200;DHT22;9732;52.498;5.408;2023-06-22T15:09:12;23.30;99.90
19200;DHT22;9732;52.498;5.408;2023-06-22T15:11:40;23.30;99.90
19200;DHT22;9732;52.498;5.408;2023-06-22T15:14:07;23.30;99.90
19200;DHT22;9732;52.498;5.408;2023-06-22T15:16:35;23.30;99.90
19200;DHT22;9732;52.498;5.408;2023-06-22T15:19:02;23.20;99.90
19200;DHT22;9732;52.498;5.408;2023-06-22T15:21:29;23.20;99.90
19200;DHT22;9732;52.498;5.408;2023-06-22T15:23:57;23.10;99.90
19200;DHT22;9732;52.498;5.408;2023-06-22T15:26:24;23.10;99.90
19200;DHT22;9732;52.498;5.408;2023-06-22T15:28:55;23.10;99.90
19200;DHT22;9732;52.498;5.408;2023-06-22T15:31:23;23.10;99.90
19200;DHT22;9732;52.498;5.408;2023-06-22T15:33:50;23.00;99.90
19200;DHT22;9732;52.498;5.408;2023-06-22T15:36:17;23.00;99.90
19200;DHT22;9732;52.498;5.408;2023-06-22T15:38:45;23.00;99.90
19200;DHT22;9732;52.498;5.408;2023-06-22T15:41:13;23.00;99.90
19200;DHT22;9732;52.498;5.408;2023-06-22T15:43:42;22.90;99.90
19200;DHT22;9732;52.498;5.408;2023-06-22T15:46:12;22.90;99.90
19200;DHT22;9732;52.498;5.408;2023-06-22T15:48:44;22.90;99.90
19200;DHT22;9732;52.498;5.408;2023-06-22T15:51:11;22.80;99.90
19200;DHT22;9732;52.498;5.408;2023-06-22T15:53:40;22.80;99.90